createdAt,value
2023-01-09T00:00:49.473Z,91.50
2023-01-09T00:03:16.123Z,91.60
2023-01-09T00:05:42.813Z,92.00
2023-01-09T00:08:09.571Z,92.20
2023-01-09T00:10:36.252Z,91.80
2023-01-09T00:13:02.967Z,91.90
2023-01-09T00:15:29.665Z,91.70
2023-01-09T00:17:56.348Z,91.70
2023-01-09T00:20:23.048Z,91.40
2023-01-09T00:22:49.692Z,91.70
2023-01-09T00:25:16.420Z,91.70
2023-01-09T00:27:43.123Z,91.70
2023-01-09T00:30:10.216Z,91.70
2023-01-09T00:32:36.936Z,91.70
2023-01-09T00:35:03.718Z,91.50
2023-01-09T00:37:30.375Z,92.10
2023-01-09T00:39:57.007Z,92.30
2023-01-09T00:42:24.733Z,92.30
2023-01-09T00:44:52.726Z,92.20
2023-01-09T00:47:27.485Z,92.20
2023-01-09T00:49:54.184Z,92.10
2023-01-09T00:52:20.883Z,92.10
2023-01-09T00:54:47.677Z,92.20
2023-01-09T00:57:14.471Z,92.40
2023-01-09T00:59:41.437Z,92.50
2023-01-09T01:02:08.363Z,92.70
2023-01-09T01:04:53.807Z,92.80
2023-01-09T01:07:38.689Z,92.90
2023-01-09T01:10:10.543Z,92.90
2023-01-09T01:12:37.773Z,92.60
2023-01-09T01:15:04.980Z,92.40
2023-01-09T01:17:33.318Z,92.60
2023-01-09T01:20:00.051Z,92.70
2023-01-09T01:22:26.782Z,92.80
2023-01-09T01:24:53.458Z,92.90
2023-01-09T01:27:20.193Z,93.00
2023-01-09T01:29:46.876Z,93.60
2023-01-09T01:32:13.757Z,93.90
2023-01-09T01:34:40.443Z,93.70
2023-01-09T01:37:07.145Z,93.80
2023-01-09T01:39:33.925Z,95.00
2023-01-09T01:42:00.666Z,95.60
2023-01-09T01:45:02.974Z,95.40
2023-01-09T01:47:32.426Z,95.50
2023-01-09T01:49:59.543Z,95.60
2023-01-09T01:52:26.281Z,96.20
2023-01-09T01:54:53.012Z,96.10
2023-01-09T01:57:19.729Z,95.90
2023-01-09T01:59:50.359Z,95.70
2023-01-09T02:02:18.539Z,95.60
2023-01-09T02:04:45.335Z,95.70
2023-01-09T02:07:12.050Z,95.80
2023-01-09T02:09:39.019Z,95.90
2023-01-09T02:12:15.611Z,96.30
2023-01-09T02:14:42.325Z,96.40
2023-01-09T02:17:11.167Z,96.30
2023-01-09T02:19:37.849Z,96.70
2023-01-09T02:22:12.846Z,96.60
2023-01-09T02:24:42.656Z,97.40
2023-01-09T02:27:12.041Z,97.10
2023-01-09T02:29:57.442Z,97.40
2023-01-09T02:32:33.376Z,97.20
2023-01-09T02:35:18.909Z,97.30
2023-01-09T02:38:04.499Z,97.40
2023-01-09T02:40:33.984Z,97.40
2023-01-09T02:43:00.678Z,97.60
2023-01-09T02:45:27.409Z,97.90
2023-01-09T02:47:54.125Z,98.40
2023-01-09T02:50:41.599Z,98.80
2023-01-09T02:53:28.548Z,99.30
2023-01-09T02:55:55.720Z,99.10
2023-01-09T02:58:22.460Z,98.60
2023-01-09T03:00:58.452Z,98.90
2023-01-09T03:03:44.948Z,99.30
2023-01-09T03:06:11.581Z,97.40
2023-01-09T03:08:39.383Z,97.60
2023-01-09T03:11:07.720Z,96.90
2023-01-09T03:13:39.792Z,96.60
2023-01-09T03:16:06.789Z,97.40
2023-01-09T03:18:33.572Z,97.30
2023-01-09T03:21:00.555Z,97.40
2023-01-09T03:23:27.333Z,98.40
2023-01-09T03:25:54.055Z,98.50
2023-01-09T03:28:27.806Z,98.40
2023-01-09T03:30:54.559Z,98.50
2023-01-09T03:33:21.290Z,98.10
2023-01-09T03:35:47.936Z,98.40
2023-01-09T03:38:14.673Z,98.50
2023-01-09T03:40:43.327Z,98.90
2023-01-09T03:43:10.118Z,99.90
2023-01-09T03:45:36.815Z,99.90
2023-01-09T03:48:03.549Z,99.90
2023-01-09T03:50:30.324Z,99.90
2023-01-09T03:52:57.035Z,99.90
2023-01-09T03:55:23.872Z,99.90
2023-01-09T03:57:52.700Z,99.90
2023-01-09T04:00:19.984Z,99.90
2023-01-09T04:02:46.673Z,99.90
2023-01-09T04:05:13.517Z,99.90
2023-01-09T04:07:40.252Z,99.90
2023-01-09T04:10:07.033Z,99.90
2023-01-09T04:12:33.742Z,99.90
2023-01-09T04:15:00.403Z,99.40
2023-01-09T04:17:27.023Z,95.60
2023-01-09T04:19:53.776Z,96.50
2023-01-09T04:22:20.497Z,94.30
2023-01-09T04:24:47.188Z,92.20
2023-01-09T04:27:13.967Z,92.00
2023-01-09T04:29:40.595Z,91.00
2023-01-09T04:32:07.331Z,90.70
2023-01-09T04:34:34.026Z,90.50
2023-01-09T04:37:00.761Z,90.40
2023-01-09T04:39:27.417Z,90.00
2023-01-09T04:41:54.090Z,90.20
2023-01-09T04:44:21.622Z,90.00
2023-01-09T04:46:48.499Z,90.20
2023-01-09T04:49:15.249Z,90.30
2023-01-09T04:51:41.988Z,90.10
2023-01-09T04:54:08.661Z,90.00
2023-01-09T04:56:35.698Z,90.20
2023-01-09T04:59:02.693Z,90.50
2023-01-09T05:01:29.561Z,90.10
2023-01-09T05:03:56.493Z,90.00
2023-01-09T05:06:23.178Z,90.10
2023-01-09T05:08:49.849Z,90.10
2023-01-09T05:11:16.570Z,90.50
2023-01-09T05:13:43.482Z,90.50
2023-01-09T05:16:10.362Z,90.90
2023-01-09T05:18:37.192Z,90.80
2023-01-09T05:21:03.941Z,90.70
2023-01-09T05:23:30.655Z,90.60
2023-01-09T05:25:57.353Z,90.90
2023-01-09T05:28:24.070Z,90.70
2023-01-09T05:30:50.712Z,91.00
2023-01-09T05:33:17.410Z,91.20
2023-01-09T05:35:44.063Z,90.90
2023-01-09T05:38:11.637Z,90.90
2023-01-09T05:40:40.478Z,91.10
2023-01-09T05:43:07.485Z,90.80
2023-01-09T05:45:34.499Z,90.70
2023-01-09T05:48:01.200Z,90.80
2023-01-09T05:50:27.909Z,90.70
2023-01-09T05:52:54.649Z,90.80
2023-01-09T05:55:21.397Z,90.60
2023-01-09T05:57:48.214Z,90.60
2023-01-09T06:00:15.141Z,90.20
2023-01-09T06:02:41.962Z,90.20
2023-01-09T06:05:09.241Z,90.40
2023-01-09T06:07:39.249Z,90.60
2023-01-09T06:10:07.095Z,90.10
2023-01-09T06:12:33.784Z,90.30
2023-01-09T06:15:00.470Z,90.00
2023-01-09T06:17:27.180Z,90.40
2023-01-09T06:19:53.951Z,91.40
2023-01-09T06:22:20.683Z,91.70
2023-01-09T06:24:47.393Z,91.60
2023-01-09T06:27:14.064Z,90.90
2023-01-09T06:29:40.723Z,90.80
2023-01-09T06:32:07.379Z,91.40
2023-01-09T06:34:34.064Z,91.60
2023-01-09T06:37:00.806Z,91.50
2023-01-09T06:39:27.533Z,91.70
2023-01-09T06:41:54.241Z,91.80
2023-01-09T06:44:20.945Z,92.60
2023-01-09T06:46:47.699Z,93.00
2023-01-09T06:49:14.435Z,93.40
2023-01-09T06:51:41.146Z,94.00
2023-01-09T06:54:07.827Z,92.50
2023-01-09T06:56:34.518Z,92.90
2023-01-09T06:59:02.007Z,94.20
2023-01-09T07:01:28.823Z,92.90
2023-01-09T07:03:55.650Z,92.90
2023-01-09T07:06:22.478Z,92.20
2023-01-09T07:08:49.209Z,93.20
2023-01-09T07:11:15.943Z,93.00
2023-01-09T07:13:42.711Z,92.30
2023-01-09T07:16:10.710Z,92.60
2023-01-09T07:18:37.584Z,92.20
2023-01-09T07:21:05.661Z,91.70
2023-01-09T07:23:32.382Z,91.80
2023-01-09T07:25:59.474Z,91.10
2023-01-09T07:28:26.250Z,91.50
2023-01-09T07:30:53.340Z,91.90
2023-01-09T07:33:20.051Z,91.40
2023-01-09T07:35:46.787Z,91.10
2023-01-09T07:38:13.501Z,91.70
2023-01-09T07:40:40.212Z,92.20
2023-01-09T07:43:06.883Z,92.60
2023-01-09T07:45:33.543Z,92.10
2023-01-09T07:48:00.206Z,92.70
2023-01-09T07:50:26.818Z,92.80
2023-01-09T07:52:53.520Z,92.20
2023-01-09T07:55:20.157Z,90.80
2023-01-09T07:57:50.286Z,91.30
2023-01-09T08:00:17.502Z,91.50
2023-01-09T08:02:44.238Z,90.90
2023-01-09T08:05:14.927Z,91.70
2023-01-09T08:07:41.810Z,91.70
2023-01-09T08:10:10.523Z,91.60
2023-01-09T08:12:37.302Z,91.50
2023-01-09T08:15:04.134Z,91.80
2023-01-09T08:17:30.873Z,91.30
2023-01-09T08:19:57.572Z,91.30
2023-01-09T08:22:24.324Z,91.40
2023-01-09T08:24:50.993Z,91.60
2023-01-09T08:27:17.692Z,91.50
2023-01-09T08:29:44.426Z,92.00
2023-01-09T08:32:11.098Z,92.20
2023-01-09T08:34:37.798Z,92.70
2023-01-09T08:37:04.512Z,92.00
2023-01-09T08:39:31.492Z,91.40
2023-01-09T08:42:16.871Z,91.60
2023-01-09T08:45:01.987Z,91.80
2023-01-09T08:47:33.381Z,91.90
2023-01-09T08:50:00.590Z,92.00
2023-01-09T08:52:27.560Z,92.10
2023-01-09T08:54:54.312Z,91.80
2023-01-09T08:57:21.067Z,91.20
2023-01-09T08:59:47.879Z,91.50
2023-01-09T09:02:14.649Z,91.30
2023-01-09T09:04:41.571Z,91.50
2023-01-09T09:07:08.298Z,91.40
2023-01-09T09:09:35.022Z,91.40
2023-01-09T09:12:01.736Z,91.40
2023-01-09T09:14:47.028Z,90.70
2023-01-09T09:17:13.799Z,90.30
2023-01-09T09:19:42.547Z,90.50
2023-01-09T09:22:09.214Z,90.40
2023-01-09T09:24:35.875Z,89.90
2023-01-09T09:27:03.225Z,89.40
2023-01-09T09:29:30.018Z,90.00
2023-01-09T09:31:57.089Z,89.00
2023-01-09T09:34:24.774Z,89.10
2023-01-09T09:36:51.699Z,89.20
2023-01-09T09:39:18.432Z,88.10
2023-01-09T09:42:06.859Z,88.10
2023-01-09T09:44:48.370Z,87.60
2023-01-09T09:47:20.906Z,87.60
2023-01-09T09:49:54.908Z,86.00
2023-01-09T09:52:30.842Z,86.50
2023-01-09T09:54:58.120Z,85.40
2023-01-09T09:57:28.387Z,85.30
2023-01-09T09:59:55.074Z,85.10
2023-01-09T10:02:26.325Z,85.30
2023-01-09T10:05:16.352Z,84.70
2023-01-09T10:07:46.189Z,84.50
2023-01-09T10:10:31.856Z,85.00
2023-01-09T10:12:59.322Z,86.60
2023-01-09T10:15:41.431Z,85.90
2023-01-09T10:18:23.019Z,86.50
2023-01-09T10:21:07.171Z,86.70
2023-01-09T10:23:38.046Z,86.80
2023-01-09T10:26:05.432Z,86.70
2023-01-09T10:28:34.877Z,86.20
2023-01-09T10:31:05.311Z,86.50
2023-01-09T10:33:35.961Z,85.70
2023-01-09T10:36:02.624Z,86.10
2023-01-09T10:38:31.010Z,86.00
2023-01-09T10:41:01.848Z,86.20
2023-01-09T10:43:43.949Z,86.40
2023-01-09T10:46:27.756Z,86.30
2023-01-09T10:48:55.568Z,86.80
2023-01-09T10:51:24.195Z,86.80
2023-01-09T10:53:54.534Z,86.00
2023-01-09T10:56:21.483Z,86.50
2023-01-09T10:58:49.395Z,86.30
2023-01-09T11:01:16.909Z,86.40
2023-01-09T11:03:43.665Z,86.50
2023-01-09T11:06:16.793Z,87.00
2023-01-09T11:08:43.471Z,86.60
2023-01-09T11:11:10.321Z,85.60
2023-01-09T11:13:38.367Z,86.20
2023-01-09T11:16:11.410Z,86.00
2023-01-09T11:18:38.746Z,87.00
2023-01-09T11:21:36.188Z,86.90
2023-01-09T11:24:21.451Z,86.90
2023-01-09T11:26:50.963Z,87.10
2023-01-09T11:29:19.089Z,86.90
2023-01-09T11:31:52.062Z,86.60
2023-01-09T11:34:19.316Z,86.90
2023-01-09T11:36:46.096Z,86.30
2023-01-09T11:39:32.045Z,87.10
2023-01-09T11:41:59.220Z,86.60
2023-01-09T11:44:26.062Z,88.10
2023-01-09T11:46:52.826Z,88.00
2023-01-09T11:49:19.839Z,88.80
2023-01-09T11:51:46.609Z,89.40
2023-01-09T11:54:22.498Z,88.70
2023-01-09T11:56:49.403Z,89.00
2023-01-09T11:59:19.698Z,89.20
2023-01-09T12:01:50.048Z,89.00
2023-01-09T12:04:19.937Z,89.00
2023-01-09T12:06:58.820Z,89.60
2023-01-09T12:09:34.829Z,89.10
2023-01-09T12:12:13.426Z,89.30
2023-01-09T12:14:58.936Z,89.60
2023-01-09T12:17:31.758Z,89.80
2023-01-09T12:20:02.613Z,90.00
2023-01-09T12:22:41.751Z,90.00
2023-01-09T12:25:17.469Z,90.10
2023-01-09T12:27:47.244Z,90.10
2023-01-09T12:30:23.448Z,90.00
2023-01-09T12:32:50.111Z,89.50
2023-01-09T12:35:30.724Z,89.80
2023-01-09T12:38:05.298Z,89.40
2023-01-09T12:40:47.087Z,89.50
2023-01-09T12:43:46.347Z,89.80
2023-01-09T12:46:22.857Z,89.80
2023-01-09T12:49:04.935Z,89.80
2023-01-09T12:51:33.657Z,90.10
2023-01-09T12:54:02.531Z,89.80
2023-01-09T12:56:49.472Z,90.40
2023-01-09T12:59:33.088Z,90.20
2023-01-09T13:02:05.777Z,90.30
2023-01-09T13:04:34.714Z,89.70
2023-01-09T13:07:02.927Z,89.80
2023-01-09T13:09:33.320Z,90.00
2023-01-09T13:12:04.566Z,90.10
2023-01-09T13:14:49.531Z,90.10
2023-01-09T13:17:18.529Z,90.10
2023-01-09T13:19:46.272Z,89.60
2023-01-09T13:22:14.631Z,89.30
2023-01-09T13:25:00.477Z,90.10
2023-01-09T13:27:27.147Z,90.30
2023-01-09T13:29:55.970Z,90.10
2023-01-09T13:32:37.132Z,90.00
2023-01-09T13:35:03.931Z,89.80
2023-01-09T13:37:31.613Z,90.10
2023-01-09T13:39:58.379Z,90.00
2023-01-09T13:42:39.121Z,90.10
2023-01-09T13:45:09.689Z,89.50
2023-01-09T13:47:36.422Z,89.40
2023-01-09T13:50:09.377Z,89.50
2023-01-09T13:52:36.920Z,89.70
2023-01-09T13:55:16.171Z,90.00
2023-01-09T13:58:06.024Z,89.40
2023-01-09T14:00:35.665Z,89.40
2023-01-09T14:03:05.357Z,89.60
2023-01-09T14:05:32.126Z,89.90
2023-01-09T14:08:02.701Z,90.20
2023-01-09T14:10:30.080Z,90.10
2023-01-09T14:12:57.207Z,90.10
2023-01-09T14:15:29.435Z,90.30
2023-01-09T14:18:02.961Z,90.50
2023-01-09T14:20:40.060Z,90.60
2023-01-09T14:23:31.276Z,90.70
2023-01-09T14:25:53.978Z,91.10
2023-01-09T14:28:27.057Z,91.80
2023-01-09T14:30:53.761Z,92.90
2023-01-09T14:33:20.593Z,94.80
2023-01-09T14:35:56.293Z,95.50
2023-01-09T14:38:25.784Z,95.40
2023-01-09T14:41:12.746Z,97.40
2023-01-09T14:43:40.112Z,99.60
2023-01-09T14:46:10.412Z,99.90
2023-01-09T14:48:38.514Z,99.90
2023-01-09T14:51:08.573Z,99.90
2023-01-09T14:53:36.369Z,99.90
2023-01-09T14:56:06.613Z,99.90
2023-01-09T14:58:34.072Z,99.90
2023-01-09T15:01:02.609Z,99.90
2023-01-09T15:03:38.681Z,99.90
2023-01-09T15:06:05.677Z,99.90
2023-01-09T15:08:32.461Z,99.90
2023-01-09T15:10:59.130Z,99.90
2023-01-09T15:13:35.592Z,99.90
2023-01-09T15:16:03.642Z,99.90
2023-01-09T15:18:30.972Z,99.90
2023-01-09T15:20:59.332Z,99.90
2023-01-09T15:23:29.226Z,99.90
2023-01-09T15:26:12.188Z,99.90
2023-01-09T15:28:40.601Z,99.90
2023-01-09T15:31:12.053Z,99.90
2023-01-09T15:33:39.010Z,99.90
2023-01-09T15:36:08.151Z,99.90
2023-01-09T15:38:36.182Z,99.90
2023-01-09T15:41:10.587Z,99.90
2023-01-09T15:43:39.763Z,99.90
2023-01-09T15:46:06.443Z,99.90
2023-01-09T15:48:34.010Z,99.90
2023-01-09T15:51:10.332Z,99.90
2023-01-09T15:53:37.026Z,99.90
2023-01-09T15:56:12.956Z,99.90
2023-01-09T15:58:40.695Z,99.90
2023-01-09T16:01:12.827Z,99.90
2023-01-09T16:03:39.609Z,99.90
2023-01-09T16:06:10.574Z,99.90
2023-01-09T16:08:38.219Z,99.90
2023-01-09T16:11:05.827Z,99.90
2023-01-09T16:13:33.225Z,99.90
2023-01-09T16:16:00.278Z,99.90
2023-01-09T16:18:34.148Z,99.90
2023-01-09T16:21:01.922Z,99.90
2023-01-09T16:23:32.600Z,99.90
2023-01-09T16:26:12.191Z,99.90
2023-01-09T16:28:41.039Z,99.90
2023-01-09T16:31:18.284Z,99.90
2023-01-09T16:33:45.602Z,99.90
2023-01-09T16:36:13.779Z,99.90
2023-01-09T16:38:43.469Z,99.90
2023-01-09T16:41:32.447Z,99.90
2023-01-09T16:43:59.192Z,99.90
2023-01-09T16:46:25.953Z,99.90
2023-01-09T16:48:53.536Z,99.90
2023-01-09T16:51:21.779Z,99.90
2023-01-09T16:53:48.808Z,99.90
2023-01-09T16:56:19.990Z,99.90
2023-01-09T16:58:46.663Z,99.90
2023-01-09T17:01:16.562Z,99.90
2023-01-09T17:03:44.261Z,99.90
2023-01-09T17:06:14.502Z,99.90
2023-01-09T17:08:41.202Z,99.90
2023-01-09T17:11:09.092Z,99.90
2023-01-09T17:13:35.786Z,99.90
2023-01-09T17:16:02.564Z,99.90
2023-01-09T17:18:29.838Z,99.90
2023-01-09T17:20:57.206Z,99.90
2023-01-09T17:23:25.942Z,99.90
2023-01-09T17:26:17.648Z,99.90
2023-01-09T17:28:46.579Z,99.90
2023-01-09T17:31:13.383Z,99.90
2023-01-09T17:33:40.229Z,99.90
2023-01-09T17:36:11.203Z,99.90
2023-01-09T17:38:37.887Z,99.90
2023-01-09T17:41:04.660Z,99.90
2023-01-09T17:43:32.759Z,99.90
2023-01-09T17:46:00.242Z,99.90
2023-01-09T17:48:27.020Z,99.90
2023-01-09T17:50:53.693Z,99.90
2023-01-09T17:53:22.595Z,99.90
2023-01-09T17:55:49.303Z,99.90
2023-01-09T17:58:34.153Z,99.90
2023-01-09T18:01:00.914Z,99.90
2023-01-09T18:03:33.367Z,99.90
2023-01-09T18:06:00.352Z,99.90
2023-01-09T18:08:27.103Z,99.90
2023-01-09T18:10:53.921Z,99.90
2023-01-09T18:13:20.740Z,99.90
2023-01-09T18:15:47.518Z,99.90
2023-01-09T18:18:16.056Z,99.90
2023-01-09T18:20:43.081Z,99.90
2023-01-09T18:23:09.865Z,99.90
2023-01-09T18:25:39.467Z,99.90
2023-01-09T18:28:06.534Z,99.90
2023-01-09T18:30:33.210Z,99.90
2023-01-09T18:33:00.037Z,99.90
2023-01-09T18:35:26.752Z,99.90
2023-01-09T18:37:53.444Z,99.90
2023-01-09T18:40:20.219Z,99.90
2023-01-09T18:42:48.497Z,99.90
2023-01-09T18:45:15.280Z,99.90
2023-01-09T18:47:41.998Z,99.90
2023-01-09T18:50:09.200Z,99.90
2023-01-09T18:52:35.867Z,99.90
2023-01-09T18:55:02.627Z,99.90
2023-01-09T18:57:29.350Z,99.90
2023-01-09T18:59:56.108Z,99.90
2023-01-09T19:02:23.631Z,99.90
2023-01-09T19:04:50.381Z,99.90
2023-01-09T19:07:17.153Z,99.90
2023-01-09T19:09:44.314Z,99.90
2023-01-09T19:12:11.181Z,99.90
2023-01-09T19:14:38.062Z,99.90
2023-01-09T19:17:04.793Z,99.90
2023-01-09T19:19:31.463Z,99.90
2023-01-09T19:21:58.223Z,99.90
2023-01-09T19:24:25.009Z,99.90
2023-01-09T19:26:54.683Z,99.90
2023-01-09T19:29:21.363Z,99.90
2023-01-09T19:31:52.165Z,99.90
2023-01-09T19:34:19.164Z,99.90
2023-01-09T19:36:47.606Z,99.90
2023-01-09T19:39:14.432Z,99.90
2023-01-09T19:41:41.307Z,99.90
2023-01-09T19:44:08.290Z,99.90
2023-01-09T19:46:36.140Z,99.90
2023-01-09T19:49:05.056Z,99.90
2023-01-09T19:51:32.526Z,99.90
2023-01-09T19:56:26.251Z,99.90
2023-01-09T19:58:53.696Z,99.90
2023-01-09T20:01:21.381Z,99.90
2023-01-09T20:03:48.231Z,99.90
2023-01-09T20:06:17.556Z,99.90
2023-01-09T20:08:47.662Z,99.90
2023-01-09T20:11:14.919Z,99.90
2023-01-09T20:13:41.777Z,99.90
2023-01-09T20:16:08.769Z,99.90
2023-01-09T20:18:35.792Z,99.90
2023-01-09T20:21:03.527Z,99.90
2023-01-09T20:23:32.662Z,99.90
2023-01-09T20:26:00.015Z,99.90
2023-01-09T20:28:26.862Z,99.90
2023-01-09T20:30:53.775Z,99.90
2023-01-09T20:33:20.887Z,99.90
2023-01-09T20:35:47.617Z,99.90
2023-01-09T20:38:14.358Z,99.90
2023-01-09T20:40:43.883Z,99.90
2023-01-09T20:43:12.084Z,99.90
2023-01-09T20:45:39.232Z,99.90
2023-01-09T20:48:06.157Z,99.90
2023-01-09T20:50:33.232Z,99.90
2023-01-09T20:52:59.885Z,99.90
2023-01-09T20:55:26.572Z,99.90
2023-01-09T20:57:53.236Z,99.90
2023-01-09T21:00:20.665Z,99.90
2023-01-09T21:02:47.495Z,99.90
2023-01-09T21:05:14.303Z,99.90
2023-01-09T21:07:40.997Z,99.90
2023-01-09T21:10:07.941Z,99.90
2023-01-09T21:12:38.424Z,99.90
2023-01-09T21:15:06.382Z,99.90
2023-01-09T21:17:36.554Z,99.90
2023-01-09T21:20:03.919Z,99.90
2023-01-09T21:22:33.713Z,99.90
2023-01-09T21:25:03.068Z,99.90
2023-01-09T21:27:35.350Z,99.90
2023-01-09T21:30:02.380Z,99.90
2023-01-09T21:32:29.425Z,99.90
2023-01-09T21:34:56.150Z,99.90
2023-01-09T21:37:22.823Z,99.90
2023-01-09T21:39:49.477Z,99.90
2023-01-09T21:42:34.835Z,99.90
2023-01-09T21:47:47.644Z,99.90
2023-01-09T21:50:17.283Z,99.90
2023-01-09T21:52:44.102Z,99.90
2023-01-09T21:55:10.836Z,99.90
2023-01-09T21:57:37.561Z,99.90
2023-01-09T22:00:06.708Z,99.90
2023-01-09T22:02:33.466Z,99.90
2023-01-09T22:05:01.171Z,99.90
2023-01-09T22:07:27.858Z,99.90
2023-01-09T22:09:54.609Z,99.90
2023-01-09T22:12:21.363Z,99.90
2023-01-09T22:14:48.071Z,99.90
2023-01-09T22:17:14.792Z,99.90
2023-01-09T22:19:41.739Z,99.90
2023-01-09T22:22:08.570Z,99.90
2023-01-09T22:24:35.349Z,99.90
2023-01-09T22:27:02.045Z,99.90
2023-01-09T22:29:28.856Z,99.90
2023-01-09T22:31:55.518Z,99.90
2023-01-09T22:34:22.260Z,99.90
2023-01-09T22:36:49.070Z,99.90
2023-01-09T22:39:16.567Z,99.90
2023-01-09T22:41:43.483Z,99.90
2023-01-09T22:44:11.048Z,99.90
2023-01-09T22:46:37.868Z,99.90
2023-01-09T22:49:04.572Z,99.90
2023-01-09T22:51:34.128Z,99.90
2023-01-09T22:54:00.811Z,99.90
2023-01-09T22:56:27.576Z,99.90
2023-01-09T22:58:54.706Z,99.90
2023-01-09T23:01:21.755Z,99.90
2023-01-09T23:03:48.410Z,99.90
2023-01-09T23:06:19.239Z,99.90
2023-01-09T23:08:46.175Z,99.90
2023-01-09T23:11:14.287Z,99.90
2023-01-09T23:13:40.929Z,99.90
2023-01-09T23:16:07.832Z,99.90
2023-01-09T23:18:34.527Z,99.90
2023-01-09T23:21:01.998Z,99.90
2023-01-09T23:23:29.380Z,99.90
2023-01-09T23:25:57.096Z,99.90
2023-01-09T23:28:23.927Z,99.90
2023-01-09T23:30:50.661Z,99.90
2023-01-09T23:33:17.518Z,99.90
2023-01-09T23:35:44.286Z,99.90
2023-01-09T23:38:14.104Z,99.90
2023-01-09T23:40:43.707Z,99.90
2023-01-09T23:43:10.996Z,99.90
2023-01-09T23:45:38.529Z,99.90
2023-01-09T23:48:05.937Z,99.90
2023-01-09T23:50:32.642Z,99.90
2023-01-09T23:52:59.306Z,99.90
2023-01-09T23:55:26.172Z,99.90
2023-01-09T23:57:55.892Z,99.90
